Almedia, Pennsylvania
Current Conditions -  °F | °C
As of 9:15 AM on Tuesday 21 Oct 2014 (Local Time) from KHZL Reporting Station
Haze Haze  
Wind Chill: 50°   Ceiling: 500
Heat Index: 50°   Visibility: 4mi
Dew Point: 48°   Wind: 3mph
Humidity: 94%   Direction: 140°SE
Pressure: 29.9"   Gusts: NA
Location:  41.0301°N, 76.4558°W
Report Text: KHZL 211315Z AUTO 14003KT 4SM BR OVC005 10/09 A2990 RMK AO2
Loading
Personal Weather Stations






























Interactive Weather Map
Tropical Storm Tracking
New forecast layout! Learn more

10-Day Weather Forecast

Advertisements
Track Severe Weather on mobile